Archival Weather

NSFA McMurdo Sound

NSFA McMurdo Sound, Antarctica (NZCM)

Report from: Saturday, April 1, 2023 1:55 AM UTC
Current time: Friday, July 19, 2024 3:50 AM UTC

Current weather – Weather history – Daily summaries
Weather forecast

Temperature-21.3°C (-6.3°F)
Dew point-25.5°C (-13.9°F)
Winds Calm
Visibility6.2 mi. (10 km)
Clouds Sky clear
Altimeter29.90 in.Hg (1013 mB)
Relative humidity69 %
Density altitude-4,647 ft. (-1,416 m)
Sea-level pressure101.3 kPa (1013 mB, 29.92 in.Hg)
Remarks Fully automated report
Automated weather observing station with precipitation discriminator
Flight conditions Visual Meteorological Conditions
Raw dataNZCM 010155Z AUTO 00000KT 9999 CLR M21/M26 A2990 RMK AO2 SLP133 T12131255
An error has occurred. This application may no longer respond until reloaded. Reload 🗙